Time;durP1;ratioP1;P1;durP2;ratioP2;P2;SDS_P1;SDS_P2;PMS_P1;PMS_P2;Temp;Humidity;BMP_temperature;BMP_pressure;BME280_temperature;BME280_humidity;BME280_pressure;Samples;Min_cycle;Max_cycle;Signal;HPM_P1;HPM_P2
2023/10/19 00:02:19;;;;;;;1.97;1.77;;;15.60;99.90;;;;;;5096702;28;20636;-88
2023/10/19 00:04:44;;;;;;;1.83;1.73;;;15.60;99.90;;;;;;5107113;28;20231;-88
2023/10/19 00:07:18;;;;;;;2.73;1.80;;;15.60;99.90;;;;;;5114691;28;20168;-88
2023/10/19 00:09:48;;;;;;;2.73;1.93;;;15.60;99.90;;;;;;5104032;28;20170;-89
2023/10/19 00:12:15;;;;;;;1.83;1.70;;;15.60;99.90;;;;;;5114144;28;20273;-88
2023/10/19 00:14:41;;;;;;;2.20;1.70;;;15.60;99.90;;;;;;5104076;28;20203;-88
2023/10/19 00:17:10;;;;;;;2.40;1.80;;;15.60;99.90;;;;;;5114441;28;20171;-88
2023/10/19 00:19:42;;;;;;;2.00;1.80;;;15.60;99.90;;;;;;5110756;28;20171;-88
2023/10/19 00:22:36;;;;;;;2.20;1.80;;;15.60;99.90;;;;;;5096547;28;20264;-88
2023/10/19 00:25:03;;;;;;;3.27;1.87;;;15.60;99.90;;;;;;5110357;28;20199;-88
2023/10/19 00:27:29;;;;;;;2.13;1.70;;;15.60;99.90;;;;;;5113652;28;20198;-89
2023/10/19 00:30:02;;;;;;;1.87;1.73;;;15.60;99.90;;;;;;5106431;28;20522;-88
2023/10/19 00:32:29;;;;;;;1.70;1.50;;;15.60;99.90;;;;;;5095088;28;20193;-88
2023/10/19 00:34:55;;;;;;;1.70;1.60;;;15.60;99.90;;;;;;5107668;28;20218;-88
2023/10/19 00:37:26;;;;;;;2.10;1.83;;;15.60;99.90;;;;;;5094062;28;20448;-88
2023/10/19 00:39:56;;;;;;;2.53;1.53;;;15.60;99.90;;;;;;5106734;28;20454;-88
2023/10/19 00:42:25;;;;;;;2.23;1.70;;;15.60;99.90;;;;;;5113020;28;20276;-89
2023/10/19 00:44:51;;;;;;;1.77;1.60;;;15.70;99.90;;;;;;5101916;28;20175;-89
2023/10/19 00:47:23;;;;;;;1.80;1.60;;;15.70;99.90;;;;;;5115107;28;20209;-87
2023/10/19 00:49:49;;;;;;;1.93;1.73;;;15.70;99.90;;;;;;5102797;28;20502;-88
2023/10/19 00:52:25;;;;;;;1.67;1.50;;;15.70;99.90;;;;;;5112863;28;20170;-87
2023/10/19 00:57:32;;;;;;;2.10;1.80;;;15.70;99.90;;;;;;5114290;28;20168;-86
2023/10/19 01:00:21;;;;;;;1.93;1.60;;;15.70;99.90;;;;;;5109164;28;20178;-87
2023/10/19 01:02:51;;;;;;;2.07;1.70;;;15.70;99.90;;;;;;5094764;28;20181;-88
2023/10/19 01:05:21;;;;;;;1.93;1.70;;;15.70;99.90;;;;;;5098112;28;20172;-87
2023/10/19 01:07:55;;;;;;;1.50;1.37;;;15.70;99.90;;;;;;5113859;28;20188;-87
2023/10/19 01:10:22;;;;;;;1.47;1.37;;;15.70;99.90;;;;;;5104932;28;20169;-86
2023/10/19 01:12:47;;;;;;;1.87;1.53;;;15.70;99.90;;;;;;5112388;28;20277;-86
2023/10/19 01:15:20;;;;;;;1.80;1.60;;;15.70;99.90;;;;;;5106666;28;20306;-86
2023/10/19 01:17:51;;;;;;;1.77;1.60;;;15.70;99.90;;;;;;5110192;28;20270;-87
2023/10/19 01:20:23;;;;;;;1.90;1.70;;;15.70;99.90;;;;;;5108853;28;20192;-87
2023/10/19 01:22:50;;;;;;;1.60;1.50;;;15.70;99.90;;;;;;5110189;28;20332;-88
2023/10/19 01:25:24;;;;;;;2.50;1.63;;;15.70;99.90;;;;;;5110364;28;20448;-87
2023/10/19 01:28:07;;;;;;;1.50;1.40;;;15.70;99.90;;;;;;5111520;28;20178;-86
2023/10/19 01:30:33;;;;;;;1.70;1.60;;;15.70;99.90;;;;;;5111093;28;20174;-87
2023/10/19 01:32:59;;;;;;;2.83;1.60;;;15.80;99.90;;;;;;5101951;28;20186;-87
2023/10/19 01:35:24;;;;;;;1.87;1.60;;;15.80;99.90;;;;;;5097982;28;20202;-86
2023/10/19 01:37:50;;;;;;;2.33;1.50;;;15.80;99.90;;;;;;5103754;28;20173;-86
2023/10/19 01:40:20;;;;;;;2.40;1.50;;;15.80;99.90;;;;;;5096686;28;20175;-86
2023/10/19 01:42:46;;;;;;;1.90;1.70;;;15.80;99.90;;;;;;5093524;28;20171;-87
2023/10/19 01:45:12;;;;;;;1.97;1.77;;;15.80;99.90;;;;;;5095549;28;20422;-87
2023/10/19 01:47:40;;;;;;;3.00;1.60;;;15.80;99.90;;;;;;5104625;28;20247;-86
2023/10/19 01:50:19;;;;;;;2.10;1.70;;;15.80;99.90;;;;;;5093911;28;20160;-87
2023/10/19 01:52:45;;;;;;;1.40;1.30;;;15.80;99.90;;;;;;5100183;28;20450;-87
2023/10/19 01:55:12;;;;;;;2.13;1.60;;;15.80;99.90;;;;;;5114622;28;20212;-88
2023/10/19 01:57:39;;;;;;;2.03;1.60;;;15.80;99.90;;;;;;5100866;28;20170;-86
2023/10/19 02:00:11;;;;;;;1.80;1.57;;;15.80;99.90;;;;;;5114093;28;20231;-86
2023/10/19 02:02:36;;;;;;;1.70;1.60;;;15.80;99.90;;;;;;5103425;28;20233;-87
2023/10/19 02:05:08;;;;;;;1.60;1.50;;;15.80;99.90;;;;;;5090034;28;20567;-86
2023/10/19 02:07:34;;;;;;;1.53;1.43;;;15.80;99.90;;;;;;5091344;28;20175;-87
2023/10/19 02:10:01;;;;;;;2.33;1.67;;;15.80;99.90;;;;;;5109896;28;20181;-87
2023/10/19 02:12:26;;;;;;;1.50;1.40;;;15.80;99.90;;;;;;5100403;28;20262;-87
2023/10/19 02:14:53;;;;;;;1.80;1.40;;;15.80;99.90;;;;;;5110991;28;20284;-87
2023/10/19 02:17:18;;;;;;;1.57;1.47;;;15.80;99.90;;;;;;5105061;28;20193;-86
2023/10/19 02:19:44;;;;;;;1.60;1.50;;;15.80;99.90;;;;;;5108927;28;20233;-87
2023/10/19 02:22:12;;;;;;;2.43;1.50;;;15.80;99.90;;;;;;5109098;28;20168;-87
2023/10/19 02:24:38;;;;;;;1.60;1.50;;;15.90;99.90;;;;;;5106175;28;20452;-87
2023/10/19 02:27:04;;;;;;;1.70;1.60;;;15.80;99.90;;;;;;5108520;28;20174;-86
2023/10/19 02:29:31;;;;;;;1.50;1.40;;;15.90;99.90;;;;;;5103374;28;20436;-86
2023/10/19 02:32:03;;;;;;;1.50;1.40;;;15.90;99.90;;;;;;5095813;28;20448;-86
2023/10/19 02:34:30;;;;;;;1.50;1.40;;;15.90;99.90;;;;;;5113916;28;20439;-87
2023/10/19 02:36:56;;;;;;;1.93;1.60;;;15.90;99.90;;;;;;5113083;28;20166;-87
2023/10/19 02:39:27;;;;;;;1.83;1.50;;;15.90;99.90;;;;;;5102893;28;20170;-87
2023/10/19 02:41:54;;;;;;;1.70;1.60;;;15.90;99.90;;;;;;5099085;28;20320;-87
2023/10/19 02:44:25;;;;;;;2.23;1.43;;;15.90;99.90;;;;;;5105012;28;20218;-86
2023/10/19 02:46:58;;;;;;;1.30;1.20;;;15.90;99.90;;;;;;5093734;28;20211;-86
2023/10/19 02:49:25;;;;;;;1.70;1.60;;;15.90;99.90;;;;;;5102761;28;20253;-86
2023/10/19 02:51:52;;;;;;;1.70;1.40;;;15.90;99.90;;;;;;5114779;28;20175;-86
2023/10/19 02:54:20;;;;;;;1.50;1.40;;;15.90;99.90;;;;;;5101477;28;20199;-86
2023/10/19 02:56:49;;;;;;;1.53;1.43;;;15.90;99.90;;;;;;5114163;28;20242;-87
2023/10/19 02:59:15;;;;;;;1.33;1.23;;;15.90;99.90;;;;;;5109311;28;20170;-87
2023/10/19 03:01:44;;;;;;;1.20;1.10;;;15.90;99.90;;;;;;5093631;28;20447;-87
2023/10/19 03:04:12;;;;;;;1.43;1.33;;;15.90;99.90;;;;;;5102962;28;20539;-87
2023/10/19 03:06:40;;;;;;;1.50;1.40;;;15.90;99.90;;;;;;5094978;28;20276;-87
2023/10/19 03:09:13;;;;;;;1.73;1.53;;;16.00;99.90;;;;;;5100204;28;20164;-87
2023/10/19 03:11:42;;;;;;;1.40;1.30;;;16.00;99.90;;;;;;5095376;28;20170;-87
2023/10/19 03:14:11;;;;;;;1.50;1.40;;;16.00;99.90;;;;;;5099230;28;20181;-87
2023/10/19 03:16:41;;;;;;;1.50;1.40;;;16.00;99.90;;;;;;5096643;28;20233;-87
2023/10/19 03:19:07;;;;;;;1.50;1.40;;;16.00;99.90;;;;;;5097644;28;20178;-87
2023/10/19 03:21:41;;;;;;;1.50;1.40;;;16.00;99.90;;;;;;5109536;28;20200;-87
2023/10/19 03:24:13;;;;;;;1.57;1.30;;;16.00;99.90;;;;;;5109990;28;21011;-86
2023/10/19 03:26:48;;;;;;;1.60;1.50;;;16.00;99.90;;;;;;5109747;28;20183;-87
2023/10/19 03:29:16;;;;;;;1.40;1.30;;;16.00;99.90;;;;;;5114526;28;20268;-87
2023/10/19 03:31:45;;;;;;;1.77;1.37;;;16.00;99.90;;;;;;5104757;28;20429;-87
2023/10/19 03:34:13;;;;;;;1.50;1.40;;;16.00;99.90;;;;;;5096036;28;20201;-87
2023/10/19 03:36:39;;;;;;;1.90;1.30;;;16.00;99.90;;;;;;5104683;28;20289;-87
2023/10/19 03:39:12;;;;;;;1.47;1.27;;;16.00;99.90;;;;;;5094790;28;20566;-88
2023/10/19 03:41:42;;;;;;;1.30;1.20;;;16.00;99.90;;;;;;5098992;28;20175;-87
2023/10/19 03:44:17;;;;;;;1.63;1.10;;;16.00;99.90;;;;;;5093995;28;20270;-87
2023/10/19 03:46:52;;;;;;;1.23;1.10;;;16.00;99.90;;;;;;5105786;28;20163;-87
2023/10/19 03:49:22;;;;;;;1.20;1.10;;;16.00;99.90;;;;;;5095486;28;20655;-87
2023/10/19 03:52:30;;;;;;;2.30;1.20;;;16.00;99.90;;;;;;5113741;28;20182;-87
2023/10/19 03:54:41;;;;;;;1.33;1.20;;;16.10;99.90;;;;;;5109384;28;20206;-87
2023/10/19 03:57:24;;;;;;;1.20;1.10;;;16.00;99.90;;;;;;5104685;28;20218;-87
2023/10/19 03:59:57;;;;;;;1.53;1.43;;;16.10;99.90;;;;;;5115038;28;20172;-87
2023/10/19 04:02:24;;;;;;;2.13;1.40;;;16.10;99.90;;;;;;5095488;28;20225;-87
2023/10/19 04:04:52;;;;;;;1.67;1.20;;;16.10;99.90;;;;;;5095388;28;20277;-87
2023/10/19 04:07:20;;;;;;;1.30;1.20;;;16.10;99.90;;;;;;5104344;28;20240;-87
2023/10/19 04:10:04;;;;;;;2.17;1.30;;;16.10;99.90;;;;;;5092726;28;20178;-87
2023/10/19 04:12:30;;;;;;;1.40;1.30;;;16.10;99.90;;;;;;5099488;28;20178;-87
2023/10/19 04:14:56;;;;;;;1.23;1.13;;;16.10;99.90;;;;;;5112899;28;20210;-87
2023/10/19 04:17:23;;;;;;;1.63;1.20;;;16.10;99.90;;;;;;5107671;28;20176;-87
2023/10/19 04:19:54;;;;;;;1.33;1.23;;;16.10;99.90;;;;;;5093675;28;20201;-87
2023/10/19 04:22:23;;;;;;;1.40;1.30;;;16.10;99.90;;;;;;5104540;28;20180;-87
2023/10/19 04:24:50;;;;;;;2.00;1.47;;;16.10;99.90;;;;;;5091839;28;20166;-87
2023/10/19 04:27:16;;;;;;;1.10;1.00;;;16.10;99.90;;;;;;5095642;28;20430;-87
2023/10/19 04:29:43;;;;;;;1.30;1.20;;;16.10;99.90;;;;;;5111871;28;20247;-87
2023/10/19 04:32:09;;;;;;;1.27;1.17;;;16.10;99.90;;;;;;5093530;28;20190;-87
2023/10/19 04:34:36;;;;;;;1.30;1.20;;;16.10;99.90;;;;;;5093623;28;20178;-87
2023/10/19 04:37:03;;;;;;;2.13;1.30;;;16.10;99.90;;;;;;5101581;28;20262;-88
2023/10/19 04:39:30;;;;;;;1.30;1.20;;;16.10;99.90;;;;;;5094757;28;20555;-88
2023/10/19 04:41:55;;;;;;;1.30;1.10;;;16.10;99.90;;;;;;5096574;28;20172;-88
2023/10/19 04:44:22;;;;;;;1.20;1.10;;;16.20;99.90;;;;;;5095517;28;20257;-88
2023/10/19 04:46:48;;;;;;;1.57;1.40;;;16.10;99.90;;;;;;5089495;28;20182;-88
2023/10/19 04:49:16;;;;;;;1.20;1.10;;;16.10;99.90;;;;;;5099774;28;20338;-88
2023/10/19 04:51:43;;;;;;;1.20;1.10;;;16.10;99.90;;;;;;5107339;28;20166;-88
2023/10/19 04:54:09;;;;;;;2.40;1.40;;;16.10;99.90;;;;;;5100209;28;20408;-88
2023/10/19 04:56:36;;;;;;;1.63;1.30;;;16.10;99.90;;;;;;5072838;28;20201;-88
2023/10/19 04:59:02;;;;;;;1.53;1.37;;;16.10;99.90;;;;;;5099961;28;20191;-88
2023/10/19 05:01:28;;;;;;;2.77;1.47;;;16.20;99.90;;;;;;5090430;28;20569;-88
2023/10/19 05:03:54;;;;;;;2.07;1.50;;;16.10;99.90;;;;;;5100764;28;20171;-87
2023/10/19 05:06:19;;;;;;;2.47;1.20;;;16.20;99.90;;;;;;5089827;28;20518;-88
2023/10/19 05:08:46;;;;;;;1.30;1.20;;;16.20;99.90;;;;;;5104119;28;20235;-88
2023/10/19 05:11:12;;;;;;;1.37;1.20;;;16.20;99.90;;;;;;5087710;28;20213;-88
2023/10/19 05:13:39;;;;;;;1.53;1.30;;;16.20;99.90;;;;;;5100200;28;20271;-88
2023/10/19 05:16:04;;;;;;;1.40;1.20;;;16.20;99.90;;;;;;5090095;28;20202;-88
2023/10/19 05:18:30;;;;;;;2.20;1.40;;;16.20;99.90;;;;;;5098669;28;20456;-88
2023/10/19 05:21:00;;;;;;;1.53;1.37;;;16.20;99.90;;;;;;5091754;28;20563;-88
2023/10/19 05:23:30;;;;;;;3.10;1.10;;;16.20;99.90;;;;;;5090713;28;20202;-88
2023/10/19 05:26:04;;;;;;;1.77;1.57;;;16.20;99.90;;;;;;5101382;28;20775;-88
2023/10/19 05:28:30;;;;;;;1.97;1.47;;;16.20;99.90;;;;;;5099550;28;20172;-88
2023/10/19 05:30:56;;;;;;;1.67;1.10;;;16.20;99.90;;;;;;5101039;28;20172;-88
2023/10/19 05:33:23;;;;;;;3.30;1.30;;;16.20;99.90;;;;;;5101848;28;20193;-88
2023/10/19 05:35:49;;;;;;;2.07;1.40;;;16.30;99.90;;;;;;5094616;28;20652;-88
2023/10/19 05:38:15;;;;;;;4.33;1.47;;;16.30;99.90;;;;;;5087179;28;20173;-88
2023/10/19 05:40:43;;;;;;;2.40;1.40;;;16.30;99.90;;;;;;5103606;28;20169;-88
2023/10/19 05:43:09;;;;;;;3.00;1.20;;;16.30;99.90;;;;;;5104514;28;20170;-88
2023/10/19 05:45:36;;;;;;;2.73;1.27;;;16.30;99.90;;;;;;5094105;28;20651;-88
2023/10/19 05:48:08;;;;;;;2.53;1.30;;;16.30;99.90;;;;;;5102365;28;20181;-88
2023/10/19 05:50:35;;;;;;;3.73;1.50;;;16.30;99.90;;;;;;5087302;28;20453;-88
2023/10/19 05:53:00;;;;;;;1.63;1.37;;;16.30;99.90;;;;;;5102681;28;20172;-88
2023/10/19 05:55:26;;;;;;;2.17;1.40;;;16.30;99.90;;;;;;5088214;28;20350;-88
2023/10/19 05:57:52;;;;;;;2.07;1.10;;;16.30;99.90;;;;;;5101877;28;20169;-88
2023/10/19 06:00:20;;;;;;;1.77;1.30;;;16.30;99.90;;;;;;5072504;28;20637;-88
2023/10/19 06:02:48;;;;;;;1.57;1.20;;;16.30;99.90;;;;;;5098744;28;20561;-88
2023/10/19 06:05:15;;;;;;;1.67;1.30;;;16.30;99.90;;;;;;5091892;28;20343;-88
2023/10/19 06:07:49;;;;;;;3.33;1.40;;;16.30;99.90;;;;;;5082248;28;20184;-87
2023/10/19 06:10:17;;;;;;;1.90;1.30;;;16.30;99.90;;;;;;5090155;28;20330;-88
2023/10/19 06:12:47;;;;;;;2.03;1.40;;;16.30;99.90;;;;;;5085367;28;20180;-88
2023/10/19 06:15:15;;;;;;;3.20;1.50;;;16.30;99.90;;;;;;5090204;28;20194;-88
2023/10/19 06:17:42;;;;;;;3.70;1.50;;;16.30;99.90;;;;;;5086815;28;20544;-88
2023/10/19 06:20:19;;;;;;;1.60;1.20;;;16.30;99.90;;;;;;5087094;28;20157;-88
2023/10/19 06:22:55;;;;;;;2.00;1.30;;;16.30;99.90;;;;;;5087854;28;20184;-88
2023/10/19 06:25:23;;;;;;;1.40;1.10;;;16.30;99.90;;;;;;5089423;28;20167;-88
2023/10/19 06:27:50;;;;;;;1.50;1.20;;;16.30;99.90;;;;;;5086595;28;20261;-88
2023/10/19 06:30:18;;;;;;;2.33;1.27;;;16.30;99.90;;;;;;5092740;28;20181;-88
2023/10/19 06:32:55;;;;;;;2.20;1.20;;;16.30;99.90;;;;;;5092301;28;20189;-88
2023/10/19 06:35:22;;;;;;;2.40;1.40;;;16.30;99.90;;;;;;5099323;28;21166;-88
2023/10/19 06:37:48;;;;;;;1.93;1.20;;;16.30;99.90;;;;;;5092478;28;20204;-88
2023/10/19 06:40:17;;;;;;;1.50;1.30;;;16.30;99.90;;;;;;5099826;28;20207;-88
2023/10/19 06:42:46;;;;;;;1.40;1.20;;;16.40;99.90;;;;;;5092860;28;20180;-88
2023/10/19 06:45:18;;;;;;;1.20;1.10;;;16.40;99.90;;;;;;5083830;28;20233;-87
2023/10/19 06:47:45;;;;;;;2.53;1.33;;;16.40;99.90;;;;;;5094188;28;20185;-88
2023/10/19 06:50:12;;;;;;;2.07;1.53;;;16.40;99.90;;;;;;5083283;28;20178;-88
2023/10/19 06:52:39;;;;;;;4.07;1.30;;;16.40;99.90;;;;;;5093963;28;20179;-88
2023/10/19 06:55:13;;;;;;;1.63;1.27;;;16.40;99.90;;;;;;5086106;28;20211;-88
2023/10/19 06:57:45;;;;;;;1.63;1.23;;;16.40;99.90;;;;;;5092315;28;20248;-88
2023/10/19 07:00:14;;;;;;;3.77;1.53;;;16.40;99.90;;;;;;5109502;28;20168;-88
2023/10/19 07:02:44;;;;;;;2.10;1.47;;;16.40;99.90;;;;;;5093592;28;20371;-88
2023/10/19 07:05:13;;;;;;;4.00;1.23;;;16.40;99.90;;;;;;5106858;28;20261;-88
2023/10/19 07:07:43;;;;;;;3.10;1.47;;;16.40;99.90;;;;;;5093217;28;20235;-88
2023/10/19 07:10:12;;;;;;;1.97;1.40;;;16.40;99.90;;;;;;5106063;28;20172;-88
2023/10/19 07:12:46;;;;;;;1.80;1.30;;;16.40;99.90;;;;;;5095372;28;20179;-88
2023/10/19 07:15:15;;;;;;;4.53;1.40;;;16.40;99.90;;;;;;5088761;28;20596;-88
2023/10/19 07:17:41;;;;;;;2.13;1.30;;;16.50;99.90;;;;;;5102020;28;20211;-88
2023/10/19 07:20:17;;;;;;;2.40;1.60;;;16.50;99.90;;;;;;5088880;28;20535;-88
2023/10/19 07:22:44;;;;;;;2.43;1.33;;;16.50;99.90;;;;;;5098575;28;20653;-88
2023/10/19 07:25:11;;;;;;;5.37;2.13;;;16.50;99.90;;;;;;5091707;28;20382;-88
2023/10/19 07:27:37;;;;;;;3.03;1.40;;;16.50;99.90;;;;;;5095742;28;20175;-88
2023/10/19 07:30:06;;;;;;;1.90;1.30;;;16.50;99.90;;;;;;5092645;28;20183;-88
2023/10/19 07:32:33;;;;;;;2.90;1.50;;;16.50;99.90;;;;;;5093082;28;20189;-88
2023/10/19 07:34:59;;;;;;;3.70;1.43;;;16.50;99.90;;;;;;5092644;28;20204;-88
2023/10/19 07:37:24;;;;;;;1.63;1.30;;;16.50;99.90;;;;;;5092994;28;20181;-88
2023/10/19 07:39:52;;;;;;;3.03;1.50;;;16.50;99.90;;;;;;5098648;28;20524;-88
2023/10/19 07:42:17;;;;;;;1.90;1.40;;;16.50;99.90;;;;;;5088004;28;20330;-88
2023/10/19 07:44:44;;;;;;;1.63;1.43;;;16.50;99.90;;;;;;5088406;28;20483;-89
2023/10/19 07:47:12;;;;;;;1.70;1.17;;;16.50;99.90;;;;;;5105297;28;20198;-87
2023/10/19 07:49:38;;;;;;;2.13;1.60;;;16.50;99.90;;;;;;5093665;28;20171;-87
2023/10/19 07:52:06;;;;;;;1.63;1.30;;;16.50;99.90;;;;;;5108049;28;20330;-87
2023/10/19 07:54:35;;;;;;;1.97;1.33;;;16.50;99.90;;;;;;5095503;28;20215;-87
2023/10/19 07:57:06;;;;;;;1.97;1.50;;;16.50;99.90;;;;;;5110705;28;20208;-87
2023/10/19 07:59:35;;;;;;;1.83;1.40;;;16.60;99.90;;;;;;5094249;28;20170;-87
2023/10/19 08:02:20;;;;;;;2.50;1.40;;;16.60;99.90;;;;;;5106446;28;20403;-88
2023/10/19 08:04:47;;;;;;;2.13;1.40;;;16.50;99.90;;;;;;5090898;28;20194;-88
2023/10/19 08:07:12;;;;;;;2.33;1.10;;;16.60;99.90;;;;;;5103858;28;20248;-88
2023/10/19 08:09:38;;;;;;;2.40;1.50;;;16.50;99.90;;;;;;5101559;28;20167;-88
2023/10/19 08:12:05;;;;;;;1.30;1.10;;;16.50;99.90;;;;;;5084252;28;20180;-88
2023/10/19 08:14:31;;;;;;;2.50;1.33;;;16.50;99.90;;;;;;5086388;28;20172;-88
2023/10/19 08:16:56;;;;;;;1.77;1.40;;;16.60;99.90;;;;;;5101042;28;20214;-87
2023/10/19 08:19:22;;;;;;;2.33;1.50;;;16.50;99.90;;;;;;5098028;28;20589;-88
2023/10/19 08:21:48;;;;;;;1.57;1.10;;;16.60;99.90;;;;;;5085653;28;20200;-88
2023/10/19 08:24:17;;;;;;;1.87;1.50;;;16.60;99.90;;;;;;5086997;28;20438;-87
2023/10/19 08:26:45;;;;;;;2.93;1.43;;;16.60;99.90;;;;;;5095062;28;20242;-87
2023/10/19 08:29:15;;;;;;;1.63;1.30;;;16.60;99.90;;;;;;5099343;28;20174;-87
2023/10/19 08:31:41;;;;;;;1.77;1.40;;;16.60;99.90;;;;;;5094614;28;20176;-86
2023/10/19 08:34:11;;;;;;;2.60;1.60;;;16.60;99.90;;;;;;5100087;28;20204;-87
2023/10/19 08:36:37;;;;;;;2.03;1.50;;;16.60;99.90;;;;;;5095869;28;20206;-88
2023/10/19 08:39:07;;;;;;;2.40;1.30;;;16.70;99.90;;;;;;5085372;28;20198;-88
2023/10/19 08:41:37;;;;;;;2.07;1.60;;;16.60;99.90;;;;;;5090086;28;20312;-88
2023/10/19 08:44:10;;;;;;;1.73;1.50;;;16.70;99.90;;;;;;5085315;28;20191;-87
2023/10/19 08:46:43;;;;;;;3.40;1.40;;;16.70;99.90;;;;;;5094769;28;20258;-88
2023/10/19 08:49:15;;;;;;;2.17;1.57;;;16.70;99.90;;;;;;5087050;28;20257;-88
2023/10/19 08:51:46;;;;;;;2.57;1.40;;;16.70;99.90;;;;;;5095717;28;20633;-88
2023/10/19 08:54:13;;;;;;;2.27;1.50;;;16.70;99.90;;;;;;5103870;28;20174;-87
2023/10/19 08:56:41;;;;;;;1.63;1.40;;;16.70;99.90;;;;;;5092732;28;20461;-88
2023/10/19 08:59:13;;;;;;;2.87;1.57;;;16.70;99.90;;;;;;5106560;28;20455;-87
2023/10/19 09:01:39;;;;;;;2.00;1.47;;;16.70;99.90;;;;;;5091325;28;20177;-88
2023/10/19 09:04:05;;;;;;;2.20;1.43;;;16.70;99.90;;;;;;5104907;28;20171;-88
2023/10/19 09:06:41;;;;;;;1.40;1.20;;;16.80;99.90;;;;;;5089928;28;20174;-88
2023/10/19 09:09:09;;;;;;;1.80;1.30;;;16.80;99.90;;;;;;5104380;28;20178;-88
2023/10/19 09:11:35;;;;;;;2.33;1.37;;;16.80;99.90;;;;;;5100224;28;20222;-88
2023/10/19 09:14:03;;;;;;;1.57;1.30;;;16.80;99.90;;;;;;5067520;28;20186;-88
2023/10/19 09:16:30;;;;;;;1.40;1.30;;;16.80;99.90;;;;;;5084221;28;20195;-88
2023/10/19 09:18:57;;;;;;;1.93;1.20;;;16.80;99.90;;;;;;5102435;28;20167;-88
2023/10/19 09:21:25;;;;;;;2.53;1.40;;;16.80;99.90;;;;;;5097332;28;20169;-88
2023/10/19 09:24:00;;;;;;;1.93;1.30;;;16.90;99.90;;;;;;5100093;28;20177;-87
2023/10/19 09:26:26;;;;;;;2.87;1.53;;;16.90;99.90;;;;;;5098068;28;20173;-88
2023/10/19 09:28:53;;;;;;;1.50;1.40;;;16.80;99.90;;;;;;5107814;28;20448;-88
2023/10/19 09:31:21;;;;;;;1.67;1.50;;;16.90;99.90;;;;;;5099840;28;20169;-88
2023/10/19 09:33:49;;;;;;;1.70;1.20;;;16.90;99.90;;;;;;5094452;28;20569;-88
2023/10/19 09:36:14;;;;;;;2.37;1.43;;;16.90;99.90;;;;;;5100610;28;20473;-88
2023/10/19 09:38:48;;;;;;;3.23;1.43;;;16.90;99.90;;;;;;5092418;28;20273;-88
2023/10/19 09:41:19;;;;;;;3.57;1.30;;;17.00;99.90;;;;;;5096536;28;20202;-88
2023/10/19 09:43:48;;;;;;;3.03;1.20;;;17.00;99.90;;;;;;5092829;28;20170;-88
2023/10/19 09:46:22;;;;;;;2.50;1.40;;;17.00;99.90;;;;;;5102648;28;20179;-88
2023/10/19 09:48:49;;;;;;;2.10;1.43;;;16.90;99.90;;;;;;5090010;28;20265;-88
2023/10/19 09:51:16;;;;;;;2.67;1.53;;;17.00;99.90;;;;;;5099166;28;20687;-88
2023/10/19 09:54:03;;;;;;;2.03;1.37;;;17.00;99.90;;;;;;5089385;28;20222;-88
2023/10/19 09:56:52;;;;;;;2.90;1.60;;;17.00;99.90;;;;;;5087528;28;20733;-88
2023/10/19 09:59:37;;;;;;;6.53;1.80;;;17.00;99.90;;;;;;5081097;28;20167;-88
2023/10/19 10:02:17;;;;;;;2.87;1.50;;;17.00;99.90;;;;;;5086493;28;20450;-88
2023/10/19 10:04:45;;;;;;;3.17;1.67;;;17.00;99.90;;;;;;5094424;28;20185;-88
2023/10/19 10:07:11;;;;;;;3.17;1.70;;;17.10;99.90;;;;;;5103140;28;20525;-88
2023/10/19 10:09:44;;;;;;;2.77;1.50;;;17.10;99.90;;;;;;5089472;28;20162;-88
2023/10/19 10:12:17;;;;;;;2.10;1.60;;;17.10;99.90;;;;;;5102098;28;20628;-88
2023/10/19 10:14:58;;;;;;;2.53;1.40;;;17.10;99.90;;;;;;5094362;28;20174;-88
2023/10/19 10:17:26;;;;;;;3.03;1.57;;;17.10;99.90;;;;;;5086053;28;20170;-88
2023/10/19 10:19:56;;;;;;;2.50;1.60;;;17.10;99.90;;;;;;5101609;28;20294;-88
2023/10/19 10:22:22;;;;;;;1.90;1.60;;;17.10;99.90;;;;;;5101147;28;20269;-88
2023/10/19 10:24:54;;;;;;;1.77;1.50;;;17.10;99.90;;;;;;5091973;28;20254;-88
2023/10/19 10:27:20;;;;;;;1.70;1.60;;;17.20;99.90;;;;;;5083175;28;20159;-88
2023/10/19 10:30:01;;;;;;;1.73;1.50;;;17.30;99.90;;;;;;5095077;28;20201;-88
2023/10/19 10:32:50;;;;;;;2.93;1.60;;;17.30;99.90;;;;;;5083746;28;20182;-88
2023/10/19 10:35:39;;;;;;;1.97;1.60;;;17.40;99.90;;;;;;5085891;28;20358;-88
2023/10/19 10:38:06;;;;;;;1.90;1.50;;;17.40;99.90;;;;;;5077541;28;20535;-88
2023/10/19 10:40:47;;;;;;;3.40;1.70;;;17.50;99.90;;;;;;5085139;28;20170;-88
2023/10/19 10:43:13;;;;;;;4.90;1.47;;;17.50;99.90;;;;;;5084931;28;20265;-89
2023/10/19 10:45:38;;;;;;;4.53;1.90;;;17.60;99.90;;;;;;5092048;28;20273;-89
2023/10/19 10:48:10;;;;;;;2.53;1.60;;;17.60;99.90;;;;;;5080434;28;20282;-89
2023/10/19 10:50:37;;;;;;;3.30;1.50;;;17.70;99.90;;;;;;5091496;28;20455;-90
2023/10/19 10:53:05;;;;;;;2.87;1.70;;;17.80;99.90;;;;;;5080039;28;20174;-90
2023/10/19 10:55:30;;;;;;;4.03;1.70;;;17.90;99.90;;;;;;5097368;28;20490;-89
2023/10/19 10:57:57;;;;;;;3.07;1.80;;;18.00;99.90;;;;;;5083517;28;20568;-87
2023/10/19 11:00:26;;;;;;;2.80;1.60;;;18.10;99.90;;;;;;5086706;28;20163;-87
2023/10/19 11:03:00;;;;;;;2.40;1.50;;;18.10;99.90;;;;;;5102730;28;20405;-87
2023/10/19 11:05:26;;;;;;;3.50;1.70;;;18.00;99.90;;;;;;5100242;28;20441;-87
2023/10/19 11:08:13;;;;;;;6.17;1.80;;;17.90;99.90;;;;;;5099261;28;20175;-87
2023/10/19 11:10:44;;;;;;;2.60;1.50;;;17.90;99.90;;;;;;5094749;28;20363;-87
2023/10/19 11:13:13;;;;;;;3.20;1.50;;;17.80;99.90;;;;;;5081040;28;20485;-87
2023/10/19 11:16:09;;;;;;;1.70;1.33;;;17.80;99.90;;;;;;5082453;28;20191;-89
2023/10/19 11:18:35;;;;;;;4.83;1.73;;;17.80;99.90;;;;;;5063849;28;20186;-89
2023/10/19 11:21:07;;;;;;;3.77;1.77;;;17.80;99.90;;;;;;5093489;28;20173;-89
2023/10/19 11:23:38;;;;;;;5.93;1.90;;;17.80;99.90;;;;;;5080191;28;20382;-89
2023/10/19 11:26:05;;;;;;;2.93;1.67;;;17.80;99.90;;;;;;5083645;28;20175;-89
2023/10/19 11:28:38;;;;;;;2.73;1.70;;;17.80;99.90;;;;;;5104623;28;20471;-88
2023/10/19 11:31:12;;;;;;;4.23;1.80;;;17.80;99.90;;;;;;5089017;28;20225;-88
2023/10/19 11:33:38;;;;;;;2.83;1.37;;;17.90;99.90;;;;;;5099376;28;20193;-88
2023/10/19 11:36:04;;;;;;;5.50;1.67;;;17.90;99.90;;;;;;5090366;28;20344;-88
2023/10/19 11:38:30;;;;;;;2.73;1.63;;;17.90;99.90;;;;;;5095386;28;20408;-88
2023/10/19 11:40:56;;;;;;;3.80;1.50;;;17.90;99.90;;;;;;5091423;28;20167;-88
2023/10/19 11:43:21;;;;;;;3.10;1.80;;;17.90;99.90;;;;;;5099009;28;20448;-88
2023/10/19 11:45:47;;;;;;;4.90;1.77;;;17.90;99.90;;;;;;5100159;28;20169;-88
2023/10/19 11:48:13;;;;;;;3.37;1.60;;;17.90;99.90;;;;;;5097038;28;20178;-88
2023/10/19 11:50:39;;;;;;;4.57;1.77;;;18.00;99.90;;;;;;5081924;28;20216;-88
2023/10/19 11:53:05;;;;;;;4.50;1.50;;;18.00;99.90;;;;;;5052751;28;20180;-88
2023/10/19 11:55:31;;;;;;;3.77;1.80;;;18.00;99.90;;;;;;5028226;28;20423;-88
2023/10/19 11:57:57;;;;;;;4.33;1.90;;;18.00;99.90;;;;;;5060145;28;20313;-88
2023/10/19 12:00:24;;;;;;;3.03;1.70;;;18.00;99.90;;;;;;5059807;28;20172;-88
2023/10/19 12:02:51;;;;;;;4.17;1.70;;;18.00;99.90;;;;;;5051134;28;20393;-88
2023/10/19 12:05:17;;;;;;;5.43;1.80;;;18.00;99.90;;;;;;5064582;28;20175;-88
2023/10/19 12:07:45;;;;;;;4.10;1.53;;;18.00;99.90;;;;;;5051333;28;20286;-88
2023/10/19 12:10:12;;;;;;;3.50;1.70;;;18.10;99.90;;;;;;5062531;28;20176;-88
2023/10/19 12:12:38;;;;;;;3.60;1.73;;;18.10;99.90;;;;;;5048146;28;20180;-88
2023/10/19 12:15:05;;;;;;;4.13;1.53;;;18.10;99.90;;;;;;5061163;28;20259;-88
2023/10/19 12:17:31;;;;;;;4.90;1.90;;;18.10;99.90;;;;;;5045821;28;20173;-88
2023/10/19 12:19:57;;;;;;;5.73;1.73;;;18.10;99.90;;;;;;5056210;28;20168;-88
2023/10/19 12:22:24;;;;;;;2.47;1.67;;;18.10;99.90;;;;;;5048640;28;20230;-88
2023/10/19 12:24:51;;;;;;;3.97;1.90;;;18.10;99.90;;;;;;5050615;28;20434;-88
2023/10/19 12:27:18;;;;;;;2.93;1.67;;;18.10;99.90;;;;;;5052478;28;20258;-87
2023/10/19 12:29:44;;;;;;;3.77;1.90;;;18.10;99.90;;;;;;5046620;28;20183;-88
2023/10/19 12:32:09;;;;;;;4.17;1.70;;;18.10;99.90;;;;;;5060566;28;20310;-89
2023/10/19 12:34:35;;;;;;;4.30;1.87;;;18.10;99.90;;;;;;5049961;28;20201;-89
2023/10/19 12:37:03;;;;;;;6.07;1.70;;;18.20;99.90;;;;;;5057994;28;20351;-87
2023/10/19 12:39:35;;;;;;;2.83;1.50;;;18.20;99.90;;;;;;5047539;28;20167;-87
2023/10/19 12:42:01;;;;;;;5.47;1.60;;;18.20;99.90;;;;;;5044096;28;20349;-87
2023/10/19 12:44:29;;;;;;;2.87;1.53;;;18.20;99.90;;;;;;5055643;28;20183;-87
2023/10/19 12:46:57;;;;;;;3.33;1.60;;;18.20;99.90;;;;;;5040413;28;20445;-87
2023/10/19 12:49:31;;;;;;;3.40;1.73;;;18.20;99.90;;;;;;5048745;28;20167;-87
2023/10/19 12:51:56;;;;;;;4.17;1.63;;;18.20;99.90;;;;;;5061187;28;20176;-87
2023/10/19 12:54:22;;;;;;;4.00;1.90;;;18.20;99.90;;;;;;5048530;28;20190;-87
2023/10/19 12:56:49;;;;;;;3.80;1.77;;;18.20;99.90;;;;;;5059958;28;20478;-87
2023/10/19 12:59:17;;;;;;;4.60;1.60;;;18.20;99.90;;;;;;5045180;28;20531;-87
2023/10/19 13:01:44;;;;;;;4.10;1.60;;;18.20;99.90;;;;;;5061146;28;20237;-87